ADDS METAR Data INFO
IDs: Format: Raw Decoded Include TAF

Data at: 1209 UTC 21 Jun 2018

KART 211156Z AUTO 02014KT 10SM FEW060 OVC080 14/08 A2989 RMK AO2 SLP118 T01440083 10150 20100 53021
KART 211056Z AUTO 03008KT 10SM FEW055 SCT100 14/12 A2987 RMK AO2 SLP109 T01440117
KART 210956Z AUTO 04009KT 10SM BKN095 14/12 A2985 RMK AO2 SLP103 T01390122
KART 210856Z AUTO 07004KT 10SM FEW065 SCT100 12/11 A2983 RMK AO2 SLP097 T01220111 51002
KART 210756Z AUTO 09003KT 10SM SCT049 12/11 A2982 RMK AO2 SLP096 T01170111
KART 210656Z AUTO 09004KT 10SM BKN046 11/11 A2982 RMK AO2 SLP096 T01110111
KART 210556Z AUTO 08003KT 10SM CLR 10/09 A2982 RMK AO2 SLP096 T01000094 10200 20100 51002
KART 210456Z AUTO 00000KT 10SM FEW060 11/09 A2982 RMK AO2 SLP094 T01060094 402330072
KART 210356Z AUTO 15003KT 10SM CLR 11/11 A2982 RMK AO2 SLP097 T01110106
KART 210256Z AUTO 00000KT 10SM CLR 13/11 A2981 RMK AO2 SLP093 T01280111 53007
KART 210156Z AUTO 19003KT 10SM CLR 13/11 A2980 RMK AO2 SLP088 T01330111
KART 210056Z AUTO 00000KT 10SM CLR 18/11 A2979 RMK AO2 SLP084 T01780111
KART 202356Z AUTO 23003KT 10SM CLR 21/12 A2979 RMK AO2 SLP085 T02060117 10233 20206 56012
KART 202256Z AUTO 25005KT 10SM CLR 22/11 A2980 RMK AO2 SLP087 T02220106
KART 202156Z AUTO 24005KT 10SM CLR 22/11 A2981 RMK AO2 SLP092 T02220106
KART 202056Z AUTO 27009KT 10SM CLR 22/11 A2983 RMK AO2 SLP098 T02220111 57010
KART 201956Z AUTO 27009KT 10SM CLR 23/12 A2984 RMK AO2 SLP101 T02280117
KART 201856Z AUTO 26007KT 10SM CLR 22/12 A2985 RMK AO2 SLP106 T02170122
KART 201756Z AUTO 27011KT 10SM CLR 21/12 A2986 RMK AO2 SLP109 T02060122 10228 20172 58007
KART 201656Z AUTO 27009KT 10SM CLR 22/13 A2987 RMK AO2 SLP111 T02170133
KART 201556Z AUTO 24009KT 10SM CLR 22/11 A2988 RMK AO2 SLP117 T02220106
KART 201456Z AUTO 24007KT 10SM CLR 21/11 A2988 RMK AO2 SLP116 T02060111 58012
KART 201356Z AUTO 24007KT 10SM CLR 21/11 A2989 RMK AO2 SLP120 T02060106
KART 201256Z AUTO VRB05KT 10SM CLR 19/11 A2992 RMK AO2 SLP127 T01890111
KART 201156Z AUTO 21005KT 10SM CLR 17/11 A2992 RMK AO2 SLP127 T01720106 10172 20072 50001
KART 201056Z AUTO VRB03KT 10SM CLR 14/11 A2992 RMK AO2 SLP131 T01440106
KART 200956Z AUTO 17003KT 10SM CLR 11/08 A2993 RMK AO2 SLP132 T01060083
KART 200856Z AUTO 17003KT 10SM CLR 09/08 A2991 RMK AO2 SLP127 T00940083 56007
KART 200756Z AUTO 18003KT 10SM CLR 11/09 A2991 RMK AO2 SLP126 T01110089
KART 200656Z AUTO 00000KT 10SM CLR 08/07 A2992 RMK AO2 SLP131 T00780072
KART 200556Z AUTO 17004KT 10SM CLR 10/09 A2993 RMK AO2 SLP133 T01000089 10172 20083 56006
KART 200456Z AUTO 00000KT 10SM CLR 10/09 A2994 RMK AO2 SLP137 T01000094 402390094
KART 200356Z AUTO 00000KT 10SM CLR 11/10 A2994 RMK AO2 SLP136 T01110100
KART 200256Z AUTO 17003KT 10SM CLR 13/11 A2995 RMK AO2 SLP139 T01280106 50001
KART 200156Z AUTO 17005KT 10SM CLR 14/11 A2995 RMK AO2 SLP141 T01390106
KART 200056Z AUTO 22005KT 10SM CLR 15/11 A2995 RMK AO2 SLP141 T01500111